createdAt,value
2022-10-18T00:00:52.443Z,17.00
2022-10-18T00:03:19.515Z,17.00
2022-10-18T00:05:48.110Z,17.00
2022-10-18T00:08:16.028Z,16.90
2022-10-18T00:10:43.028Z,16.90
2022-10-18T00:13:10.003Z,16.90
2022-10-18T00:15:37.097Z,16.90
2022-10-18T00:18:04.584Z,16.90
2022-10-18T00:20:31.793Z,16.90
2022-10-18T00:22:58.779Z,16.80
2022-10-18T00:25:25.750Z,16.80
2022-10-18T00:27:52.702Z,16.80
2022-10-18T00:30:19.676Z,16.80
2022-10-18T00:32:46.687Z,16.70
2022-10-18T00:35:13.702Z,16.70
2022-10-18T00:37:40.655Z,16.70
2022-10-18T00:40:08.207Z,16.80
2022-10-18T00:42:38.618Z,16.70
2022-10-18T00:45:19.782Z,16.70
2022-10-18T00:47:54.324Z,16.70
2022-10-18T00:50:23.090Z,16.70
2022-10-18T00:52:54.091Z,16.60
2022-10-18T00:55:21.387Z,16.60
2022-10-18T00:57:49.938Z,16.50
2022-10-18T01:00:17.457Z,16.50
2022-10-18T01:02:45.982Z,16.50
2022-10-18T01:05:26.767Z,16.50
2022-10-18T01:08:08.611Z,16.40
2022-10-18T01:10:54.007Z,16.40
2022-10-18T01:13:38.821Z,16.40
2022-10-18T01:16:35.555Z,16.40
2022-10-18T01:19:40.127Z,16.40
2022-10-18T01:22:48.722Z,16.30
2022-10-18T01:25:49.611Z,16.30
2022-10-18T01:28:43.031Z,16.30
2022-10-18T01:31:17.200Z,16.30
2022-10-18T01:33:52.006Z,16.20
2022-10-18T01:36:24.176Z,16.20
2022-10-18T01:38:55.289Z,16.20
2022-10-18T01:41:25.363Z,16.20
2022-10-18T01:43:59.308Z,16.20
2022-10-18T01:46:28.052Z,16.20
2022-10-18T01:48:56.442Z,16.10
2022-10-18T01:51:28.669Z,16.20
2022-10-18T01:53:55.950Z,16.20
2022-10-18T01:56:30.562Z,16.10
2022-10-18T01:59:03.014Z,16.10
2022-10-18T02:01:41.322Z,16.10
2022-10-18T02:04:24.015Z,16.10
2022-10-18T02:06:57.697Z,16.10
2022-10-18T02:09:40.408Z,16.10
2022-10-18T02:12:12.250Z,16.00
2022-10-18T02:14:41.630Z,16.10
2022-10-18T02:17:12.437Z,16.10
2022-10-18T02:19:53.753Z,16.10
2022-10-18T02:22:23.914Z,16.10
2022-10-18T02:24:55.176Z,16.00
2022-10-18T02:27:22.952Z,16.00
2022-10-18T02:29:50.311Z,16.00
2022-10-18T02:32:34.644Z,16.00
2022-10-18T02:35:04.502Z,16.00
2022-10-18T02:37:35.601Z,16.00
2022-10-18T02:40:04.848Z,16.00
2022-10-18T02:42:41.489Z,16.00
2022-10-18T02:45:08.651Z,16.00
2022-10-18T02:47:35.603Z,16.00
2022-10-18T02:50:02.699Z,15.90
2022-10-18T02:52:29.647Z,15.90
2022-10-18T02:54:56.625Z,15.90
2022-10-18T02:57:23.643Z,15.90
2022-10-18T02:59:50.625Z,15.90
2022-10-18T03:02:17.588Z,15.90
2022-10-18T03:04:44.557Z,15.90
2022-10-18T03:07:11.522Z,15.90
2022-10-18T03:09:38.557Z,15.90
2022-10-18T03:12:06.169Z,15.90
2022-10-18T03:14:33.209Z,15.90
2022-10-18T03:17:00.192Z,15.90
2022-10-18T03:19:27.172Z,15.80
2022-10-18T03:21:54.224Z,15.80
2022-10-18T03:24:21.266Z,15.80
2022-10-18T03:26:48.270Z,15.80
2022-10-18T03:29:15.241Z,15.80
2022-10-18T03:31:42.514Z,15.80
2022-10-18T03:34:09.466Z,15.80
2022-10-18T03:36:36.471Z,15.80
2022-10-18T03:39:03.467Z,15.80
2022-10-18T03:41:30.485Z,15.80
2022-10-18T03:43:57.495Z,15.80
2022-10-18T03:46:24.497Z,15.80
2022-10-18T03:48:51.493Z,15.80
2022-10-18T03:51:18.444Z,15.80
2022-10-18T03:53:45.453Z,15.80
2022-10-18T03:56:12.472Z,15.70
2022-10-18T03:58:39.431Z,15.70
2022-10-18T04:01:07.088Z,15.80
2022-10-18T04:03:34.087Z,15.70
2022-10-18T04:06:03.469Z,15.70
2022-10-18T04:08:30.622Z,15.80
2022-10-18T04:10:57.608Z,15.80
2022-10-18T04:13:24.670Z,15.70
2022-10-18T04:15:51.676Z,15.70
2022-10-18T04:18:18.698Z,15.70
2022-10-18T04:20:45.645Z,15.70
2022-10-18T04:23:12.627Z,15.70
2022-10-18T04:25:39.668Z,15.70
2022-10-18T04:28:06.743Z,15.70
2022-10-18T04:30:33.749Z,15.60
2022-10-18T04:33:00.745Z,15.70
2022-10-18T04:35:28.424Z,15.60
2022-10-18T04:37:55.491Z,15.60
2022-10-18T04:40:22.468Z,15.60
2022-10-18T04:42:49.463Z,15.60
2022-10-18T04:45:16.461Z,15.60
2022-10-18T04:47:43.424Z,15.60
2022-10-18T04:50:10.441Z,15.60
2022-10-18T04:52:37.448Z,15.60
2022-10-18T04:55:04.678Z,15.60
2022-10-18T04:57:32.078Z,15.60
2022-10-18T04:59:59.238Z,15.60
2022-10-18T05:02:26.231Z,15.50
2022-10-18T05:04:53.231Z,15.60
2022-10-18T05:07:20.369Z,15.60
2022-10-18T05:09:47.360Z,15.50
2022-10-18T05:12:14.331Z,15.50
2022-10-18T05:14:41.341Z,15.50
2022-10-18T05:17:08.391Z,15.50
2022-10-18T05:19:35.529Z,15.50
2022-10-18T05:22:02.505Z,15.40
2022-10-18T05:24:29.498Z,15.50
2022-10-18T05:26:56.490Z,15.40
2022-10-18T05:29:23.988Z,15.40
2022-10-18T05:31:51.211Z,15.40
2022-10-18T05:34:18.347Z,15.40
2022-10-18T05:36:45.403Z,15.40
2022-10-18T05:39:12.433Z,15.40
2022-10-18T05:41:39.423Z,15.40
2022-10-18T05:44:06.775Z,15.40
2022-10-18T05:46:34.203Z,15.40
2022-10-18T05:49:01.182Z,15.40
2022-10-18T05:51:28.215Z,15.50
2022-10-18T05:53:55.348Z,15.40
2022-10-18T05:56:22.440Z,15.50
2022-10-18T05:58:52.556Z,15.50
2022-10-18T06:01:20.154Z,15.40
2022-10-18T06:03:47.562Z,15.50
2022-10-18T06:06:15.430Z,15.50
2022-10-18T06:08:43.781Z,15.50
2022-10-18T06:11:14.687Z,15.50
2022-10-18T06:13:43.458Z,15.60
2022-10-18T06:16:11.452Z,15.60
2022-10-18T06:18:38.740Z,15.70
2022-10-18T06:21:06.410Z,15.70
2022-10-18T06:23:34.005Z,15.80
2022-10-18T06:26:02.668Z,15.80
2022-10-18T06:28:30.490Z,15.90
2022-10-18T06:30:58.452Z,16.00
2022-10-18T06:33:25.741Z,16.00
2022-10-18T06:36:01.068Z,16.10
2022-10-18T06:38:29.293Z,16.10
2022-10-18T06:40:57.355Z,16.20
2022-10-18T06:43:25.036Z,16.30
2022-10-18T06:45:52.980Z,16.30
2022-10-18T06:48:21.306Z,16.40
2022-10-18T06:50:57.087Z,16.50
2022-10-18T06:53:32.385Z,16.60
2022-10-18T06:56:01.766Z,16.70
2022-10-18T06:58:29.598Z,16.80
2022-10-18T07:00:56.896Z,16.90
2022-10-18T07:03:23.980Z,17.10
2022-10-18T07:05:51.195Z,17.30
2022-10-18T07:08:18.482Z,17.40
2022-10-18T07:10:53.204Z,17.60
2022-10-18T07:13:31.930Z,17.80
2022-10-18T07:16:06.422Z,17.90
2022-10-18T07:18:34.982Z,18.10
2022-10-18T07:21:06.890Z,18.20
2022-10-18T07:23:35.019Z,18.30
2022-10-18T07:26:03.559Z,18.40
2022-10-18T07:28:31.034Z,18.50
2022-10-18T07:31:06.055Z,18.60
2022-10-18T07:33:34.318Z,18.70
2022-10-18T07:36:03.373Z,18.80
2022-10-18T07:38:30.725Z,18.90
2022-10-18T07:41:02.241Z,19.00
2022-10-18T07:43:29.897Z,19.10
2022-10-18T07:45:59.129Z,19.20
2022-10-18T07:48:26.574Z,19.30
2022-10-18T07:50:54.066Z,19.40
2022-10-18T07:53:21.163Z,19.50
2022-10-18T07:55:48.147Z,19.60
2022-10-18T07:58:15.300Z,19.70
2022-10-18T08:00:42.330Z,19.80
2022-10-18T08:03:09.300Z,19.90
2022-10-18T08:05:36.246Z,20.00
2022-10-18T08:08:05.756Z,20.10
2022-10-18T08:10:35.781Z,20.30
2022-10-18T08:13:02.794Z,20.30
2022-10-18T08:15:29.757Z,20.50
2022-10-18T08:17:56.785Z,20.60
2022-10-18T08:20:30.945Z,20.70
2022-10-18T08:23:00.338Z,20.80
2022-10-18T08:25:28.447Z,20.80
2022-10-18T08:27:55.446Z,21.00
2022-10-18T08:30:23.580Z,21.10
2022-10-18T08:32:50.614Z,21.20
2022-10-18T08:35:17.589Z,21.30
2022-10-18T08:37:45.436Z,21.30
2022-10-18T08:40:16.317Z,21.40
2022-10-18T08:43:02.090Z,21.50
2022-10-18T08:45:41.900Z,21.60
2022-10-18T08:48:22.062Z,21.80
2022-10-18T08:50:51.000Z,21.90
2022-10-18T08:53:28.880Z,22.00
2022-10-18T08:56:03.807Z,22.10
2022-10-18T08:58:33.402Z,22.20
2022-10-18T09:01:25.050Z,22.30
2022-10-18T09:04:09.908Z,22.40
2022-10-18T09:07:06.969Z,22.50
2022-10-18T09:09:53.001Z,22.60
2022-10-18T09:12:32.271Z,22.70
2022-10-18T09:15:11.210Z,22.80
2022-10-18T09:17:53.185Z,22.90
2022-10-18T09:20:48.228Z,23.00
2022-10-18T09:23:23.006Z,23.00
2022-10-18T09:26:07.828Z,23.10
2022-10-18T09:28:34.782Z,23.20
2022-10-18T09:31:17.152Z,23.30
2022-10-18T09:33:50.809Z,23.40
2022-10-18T09:36:35.492Z,23.40
2022-10-18T09:39:18.766Z,23.50
2022-10-18T09:41:48.466Z,23.50
2022-10-18T09:44:43.918Z,23.60
2022-10-18T09:47:17.720Z,23.70
2022-10-18T09:49:48.601Z,23.70
2022-10-18T09:52:39.486Z,23.80
2022-10-18T09:55:17.686Z,23.90
2022-10-18T09:57:56.386Z,24.00
2022-10-18T10:00:29.182Z,24.10
2022-10-18T10:02:56.302Z,24.20
2022-10-18T10:05:23.294Z,24.30
2022-10-18T10:07:56.855Z,24.30
2022-10-18T10:10:28.643Z,24.40
2022-10-18T10:13:26.202Z,24.40
2022-10-18T10:16:01.660Z,24.50
2022-10-18T10:18:32.375Z,24.60
2022-10-18T10:21:02.556Z,24.70
2022-10-18T10:23:38.910Z,24.70
2022-10-18T10:26:22.030Z,24.80
2022-10-18T10:28:49.376Z,24.90
2022-10-18T10:31:26.170Z,25.00
2022-10-18T10:34:06.875Z,25.10
2022-10-18T10:36:35.145Z,25.10
2022-10-18T10:39:11.893Z,25.20
2022-10-18T10:41:40.941Z,25.20
2022-10-18T10:44:17.695Z,25.10
2022-10-18T10:46:45.370Z,25.10
2022-10-18T10:49:39.815Z,25.10
2022-10-18T10:52:26.730Z,25.20
2022-10-18T10:55:05.790Z,25.20
2022-10-18T10:57:39.063Z,25.30
2022-10-18T11:00:06.424Z,25.40
2022-10-18T11:02:35.533Z,25.40
2022-10-18T11:05:29.426Z,25.50
2022-10-18T11:08:02.386Z,25.60
2022-10-18T11:10:34.560Z,25.60
2022-10-18T11:13:23.777Z,25.60
2022-10-18T11:15:57.381Z,25.50
2022-10-18T11:18:27.270Z,25.50
2022-10-18T11:21:12.988Z,25.50
2022-10-18T11:23:42.980Z,25.60
2022-10-18T11:26:12.847Z,25.60
2022-10-18T11:28:45.474Z,25.60
2022-10-18T11:31:18.874Z,25.70
2022-10-18T11:34:09.870Z,25.80
2022-10-18T11:36:56.413Z,25.90
2022-10-18T11:39:44.193Z,26.00
2022-10-18T11:42:35.653Z,26.20
2022-10-18T11:45:11.507Z,26.30
2022-10-18T11:47:55.868Z,26.40
2022-10-18T11:50:26.310Z,26.50
2022-10-18T11:53:38.118Z,26.50
2022-10-18T11:56:21.568Z,26.40
2022-10-18T11:59:19.448Z,26.50
2022-10-18T12:02:04.158Z,26.50
2022-10-18T12:04:53.050Z,26.50
2022-10-18T12:07:38.418Z,26.60
2022-10-18T12:10:09.725Z,26.60
2022-10-18T12:12:43.749Z,26.60
2022-10-18T12:15:19.780Z,26.60
2022-10-18T12:17:59.865Z,26.60
2022-10-18T12:20:38.041Z,26.70
2022-10-18T12:23:17.689Z,26.70
2022-10-18T12:25:52.751Z,26.70
2022-10-18T12:28:47.498Z,26.70
2022-10-18T12:31:23.438Z,26.70
2022-10-18T12:33:58.334Z,26.80
2022-10-18T12:36:41.093Z,26.70
2022-10-18T12:39:16.342Z,26.70
2022-10-18T12:41:47.539Z,26.60
2022-10-18T12:44:22.230Z,26.60
2022-10-18T12:46:54.583Z,26.60
2022-10-18T12:49:40.262Z,26.60
2022-10-18T12:52:28.908Z,26.60
2022-10-18T12:55:27.637Z,26.60
2022-10-18T12:57:54.559Z,26.70
2022-10-18T13:00:30.635Z,26.70
2022-10-18T13:03:09.777Z,26.60
2022-10-18T13:05:54.360Z,26.60
2022-10-18T13:08:31.718Z,26.60
2022-10-18T13:11:01.580Z,26.60
2022-10-18T13:13:39.724Z,26.60
2022-10-18T13:16:30.918Z,26.50
2022-10-18T13:19:26.736Z,26.40
2022-10-18T13:21:59.847Z,26.40
2022-10-18T13:24:42.021Z,26.30
2022-10-18T13:27:41.083Z,26.30
2022-10-18T13:30:29.230Z,26.20
2022-10-18T13:32:57.364Z,26.20
2022-10-18T13:35:44.926Z,26.20
2022-10-18T13:38:48.997Z,26.10
2022-10-18T13:41:21.507Z,26.10
2022-10-18T13:44:11.421Z,26.00
2022-10-18T13:46:38.580Z,26.00
2022-10-18T13:49:17.667Z,25.90
2022-10-18T13:52:03.343Z,26.00
2022-10-18T13:54:55.005Z,26.00
2022-10-18T13:57:47.233Z,26.00
2022-10-18T14:00:32.745Z,26.00
2022-10-18T14:03:03.013Z,26.00
2022-10-18T14:05:48.852Z,25.90
2022-10-18T14:08:36.514Z,25.90
2022-10-18T14:11:07.967Z,25.90
2022-10-18T14:14:02.556Z,25.80
2022-10-18T14:16:53.013Z,25.90
2022-10-18T14:19:30.343Z,25.80
2022-10-18T14:22:09.526Z,25.80
2022-10-18T14:24:40.627Z,25.80
2022-10-18T14:27:33.975Z,25.80
2022-10-18T14:30:13.097Z,25.80
2022-10-18T14:32:49.495Z,25.80
2022-10-18T14:35:32.092Z,25.80
2022-10-18T14:38:00.275Z,25.70
2022-10-18T14:40:27.178Z,25.70
2022-10-18T14:42:54.156Z,25.70
2022-10-18T14:45:23.259Z,25.60
2022-10-18T14:47:50.353Z,25.60
2022-10-18T14:50:30.699Z,25.50
2022-10-18T14:52:58.183Z,25.50
2022-10-18T14:55:32.575Z,25.40
2022-10-18T14:57:59.987Z,25.40
2022-10-18T15:00:37.117Z,25.30
2022-10-18T15:03:07.227Z,25.30
2022-10-18T15:05:34.278Z,25.20
2022-10-18T15:08:01.845Z,25.20
2022-10-18T15:10:35.189Z,25.10
2022-10-18T15:13:09.746Z,25.00
2022-10-18T15:15:38.443Z,25.00
2022-10-18T15:18:06.770Z,25.00
2022-10-18T15:20:39.628Z,24.90
2022-10-18T15:23:31.308Z,24.80
2022-10-18T15:26:11.552Z,24.80
2022-10-18T15:28:52.448Z,24.70
2022-10-18T15:31:33.277Z,24.60
2022-10-18T15:34:20.144Z,24.60
2022-10-18T15:36:47.995Z,24.50
2022-10-18T15:39:32.026Z,24.40
2022-10-18T15:42:00.560Z,24.40
2022-10-18T15:44:31.950Z,24.30
2022-10-18T15:47:21.226Z,24.30
2022-10-18T15:49:58.382Z,24.20
2022-10-18T15:52:38.035Z,24.20
2022-10-18T15:55:30.141Z,24.10
2022-10-18T15:58:05.194Z,24.00
2022-10-18T16:00:32.309Z,23.90
2022-10-18T16:02:59.317Z,23.90
2022-10-18T16:05:27.199Z,23.80
2022-10-18T16:07:54.623Z,23.70
2022-10-18T16:10:21.676Z,23.70
2022-10-18T16:12:48.670Z,23.60
2022-10-18T16:15:15.748Z,23.50
2022-10-18T16:17:42.799Z,23.40
2022-10-18T16:20:20.987Z,23.40
2022-10-18T16:22:48.171Z,23.30
2022-10-18T16:25:15.480Z,23.30
2022-10-18T16:27:42.775Z,23.20
2022-10-18T16:30:16.415Z,23.10
2022-10-18T16:32:43.375Z,23.10
2022-10-18T16:35:12.498Z,23.00
2022-10-18T16:37:40.201Z,22.90
2022-10-18T16:40:26.440Z,22.80
2022-10-18T16:42:53.388Z,22.80
2022-10-18T16:45:20.355Z,22.60
2022-10-18T16:47:47.418Z,22.50
2022-10-18T16:50:20.465Z,22.40
2022-10-18T16:52:47.555Z,22.40
2022-10-18T16:55:21.445Z,22.30
2022-10-18T16:57:50.416Z,22.20
2022-10-18T17:00:21.045Z,22.10
2022-10-18T17:02:49.000Z,22.00
2022-10-18T17:05:17.226Z,22.00
2022-10-18T17:07:44.797Z,21.90
2022-10-18T17:10:14.074Z,21.80
2022-10-18T17:12:41.870Z,21.80
2022-10-18T17:15:10.085Z,21.70
2022-10-18T17:17:38.132Z,21.60
2022-10-18T17:20:07.495Z,21.60
2022-10-18T17:22:34.674Z,21.60
2022-10-18T17:25:01.683Z,21.50
2022-10-18T17:27:28.740Z,21.50
2022-10-18T17:29:55.911Z,21.40
2022-10-18T17:32:22.968Z,21.40
2022-10-18T17:34:49.984Z,21.30
2022-10-18T17:37:17.036Z,21.20
2022-10-18T17:39:43.980Z,21.20
2022-10-18T17:42:10.995Z,21.20
2022-10-18T17:44:38.048Z,21.10
2022-10-18T17:47:05.043Z,21.00
2022-10-18T17:49:32.060Z,21.00
2022-10-18T17:52:01.164Z,21.00
2022-10-18T17:54:31.615Z,20.90
2022-10-18T17:56:58.586Z,20.90
2022-10-18T17:59:25.564Z,20.90
2022-10-18T18:01:52.639Z,20.80
2022-10-18T18:04:19.841Z,20.80
2022-10-18T18:06:49.040Z,20.80
2022-10-18T18:09:16.957Z,20.80
2022-10-18T18:11:47.367Z,20.80
2022-10-18T18:14:16.057Z,20.70
2022-10-18T18:16:45.926Z,20.60
2022-10-18T18:19:14.036Z,20.50
2022-10-18T18:21:41.559Z,20.50
2022-10-18T18:24:10.177Z,20.50
2022-10-18T18:26:38.230Z,20.40
2022-10-18T18:29:05.361Z,20.30
2022-10-18T18:31:37.758Z,20.30
2022-10-18T18:34:07.290Z,20.20
2022-10-18T18:36:34.377Z,20.20
2022-10-18T18:39:01.585Z,20.10
2022-10-18T18:41:29.272Z,20.10
2022-10-18T18:44:04.444Z,20.10
2022-10-18T18:46:36.703Z,20.00
2022-10-18T18:49:05.281Z,19.90
2022-10-18T18:51:33.510Z,19.90
2022-10-18T18:54:00.878Z,19.90
2022-10-18T18:56:29.242Z,19.90
2022-10-18T18:58:58.712Z,19.80
2022-10-18T19:01:29.000Z,19.80
2022-10-18T19:03:58.000Z,19.80
2022-10-18T19:06:45.953Z,19.70
2022-10-18T19:09:21.660Z,19.70
2022-10-18T19:11:53.893Z,19.70
2022-10-18T19:16:57.615Z,19.60
2022-10-18T19:19:26.805Z,19.60
2022-10-18T19:21:59.451Z,19.60
2022-10-18T19:24:28.868Z,19.50
2022-10-18T19:26:58.895Z,19.50
2022-10-18T19:29:29.823Z,19.50
2022-10-18T19:31:59.988Z,19.50
2022-10-18T19:34:29.215Z,19.50
2022-10-18T19:36:57.108Z,19.40
2022-10-18T19:39:29.822Z,19.30
2022-10-18T19:41:59.375Z,19.30
2022-10-18T19:44:30.100Z,19.30
2022-10-18T19:46:57.822Z,19.20
2022-10-18T19:49:25.123Z,19.10
2022-10-18T19:51:52.398Z,19.10
2022-10-18T19:54:19.601Z,19.10
2022-10-18T19:56:47.218Z,19.10
2022-10-18T19:59:16.673Z,19.00
2022-10-18T20:01:44.882Z,19.00
2022-10-18T20:04:13.523Z,19.00
2022-10-18T20:06:41.306Z,18.90
2022-10-18T20:09:12.351Z,18.90
2022-10-18T20:11:42.328Z,18.90
2022-10-18T20:14:10.941Z,18.90
2022-10-18T20:16:38.432Z,18.80
2022-10-18T20:19:07.441Z,18.80
2022-10-18T20:21:35.934Z,18.80
2022-10-18T20:24:04.992Z,18.70
2022-10-18T20:26:33.048Z,18.70
2022-10-18T20:29:00.228Z,18.70
2022-10-18T20:31:30.778Z,18.60
2022-10-18T20:34:04.062Z,18.60
2022-10-18T20:36:33.057Z,18.60
2022-10-18T20:39:00.980Z,18.60
2022-10-18T20:41:34.109Z,18.60
2022-10-18T20:44:10.788Z,18.50
2022-10-18T20:46:38.789Z,18.50
2022-10-18T20:49:08.220Z,18.50
2022-10-18T20:51:35.947Z,18.40
2022-10-18T20:54:07.640Z,18.40
2022-10-18T20:56:36.640Z,18.30
2022-10-18T20:59:06.572Z,18.30
2022-10-18T21:01:35.173Z,18.20
2022-10-18T21:04:05.478Z,18.20
2022-10-18T21:06:38.905Z,18.20
2022-10-18T21:09:18.786Z,18.20
2022-10-18T21:11:49.997Z,18.10
2022-10-18T21:14:20.653Z,18.10
2022-10-18T21:16:48.813Z,18.10
2022-10-18T21:19:22.030Z,18.10
2022-10-18T21:21:52.128Z,18.00
2022-10-18T21:24:20.846Z,18.00
2022-10-18T21:26:48.363Z,18.00
2022-10-18T21:29:21.667Z,18.10
2022-10-18T21:31:49.975Z,18.10
2022-10-18T21:34:18.135Z,18.10
2022-10-18T21:36:47.398Z,18.10
2022-10-18T21:39:21.238Z,18.20
2022-10-18T21:41:49.751Z,18.20
2022-10-18T21:44:17.662Z,18.20
2022-10-18T21:46:47.039Z,18.20
2022-10-18T21:49:15.912Z,18.20
2022-10-18T21:51:43.812Z,18.20
2022-10-18T21:54:13.538Z,18.20
2022-10-18T21:56:40.803Z,18.30
2022-10-18T21:59:08.707Z,18.30
2022-10-18T22:01:38.006Z,18.30
2022-10-18T22:04:08.610Z,18.30
2022-10-18T22:06:37.178Z,18.30
2022-10-18T22:09:09.000Z,18.30
2022-10-18T22:11:43.974Z,18.20
2022-10-18T22:14:12.248Z,18.20
2022-10-18T22:16:39.475Z,18.20
2022-10-18T22:19:07.406Z,18.20
2022-10-18T22:21:34.863Z,18.20
2022-10-18T22:24:05.558Z,18.20
2022-10-18T22:26:35.082Z,18.10
2022-10-18T22:29:17.210Z,18.10
2022-10-18T22:31:48.996Z,18.10
2022-10-18T22:34:27.100Z,18.10
2022-10-18T22:36:55.178Z,18.10
2022-10-18T22:39:22.526Z,18.00
2022-10-18T22:41:56.118Z,18.00
2022-10-18T22:44:24.000Z,18.00
2022-10-18T22:46:51.561Z,17.90
2022-10-18T22:49:20.015Z,17.90
2022-10-18T22:51:47.543Z,17.80
2022-10-18T22:54:15.018Z,17.80
2022-10-18T22:56:42.867Z,17.80
2022-10-18T22:59:10.486Z,17.80
2022-10-18T23:01:38.480Z,17.80
2022-10-18T23:04:05.758Z,17.80
2022-10-18T23:06:35.447Z,17.80
2022-10-18T23:09:07.146Z,17.80
2022-10-18T23:11:35.454Z,17.80
2022-10-18T23:14:04.433Z,17.70
2022-10-18T23:16:32.295Z,17.70
2022-10-18T23:19:00.114Z,17.60
2022-10-18T23:21:28.782Z,17.60
2022-10-18T23:23:57.002Z,17.60
2022-10-18T23:26:26.734Z,17.60
2022-10-18T23:28:55.138Z,17.50
2022-10-18T23:31:23.837Z,17.50
2022-10-18T23:33:53.111Z,17.40
2022-10-18T23:36:21.505Z,17.40
2022-10-18T23:38:48.820Z,17.30
2022-10-18T23:41:16.952Z,17.30
2022-10-18T23:43:44.338Z,17.30
2022-10-18T23:46:13.186Z,17.20
2022-10-18T23:48:41.355Z,17.20
2022-10-18T23:51:09.605Z,17.20
2022-10-18T23:53:37.643Z,17.20
2022-10-18T23:56:07.935Z,17.10
2022-10-18T23:58:35.973Z,17.10
